createdAt,value
2022-08-17T00:02:25.905Z,99805.72
2022-08-17T00:05:31.947Z,99808.72
2022-08-17T00:08:38.339Z,99795.13
2022-08-17T00:11:43.363Z,99803.34
2022-08-17T00:15:10.472Z,99798.78
2022-08-17T00:19:04.184Z,99802.25
2022-08-17T00:22:29.916Z,99794.81
2022-08-17T00:24:58.967Z,99802.53
2022-08-17T00:28:00.925Z,99804.22
2022-08-17T00:31:02.806Z,99799.69
2022-08-17T00:34:06.314Z,99796.94
2022-08-17T00:37:08.302Z,99796.03
2022-08-17T00:40:13.188Z,99799.19
2022-08-17T00:43:15.008Z,99802.56
2022-08-17T00:46:28.464Z,99798.50
2022-08-17T00:49:31.431Z,99792.44
2022-08-17T00:52:37.462Z,99790.75
2022-08-17T00:55:39.431Z,99798.91
2022-08-17T00:58:41.658Z,99801.75
2022-08-17T01:01:44.220Z,99801.81
2022-08-17T01:04:49.407Z,99806.47
2022-08-17T01:07:51.741Z,99799.28
2022-08-17T01:11:01.759Z,99793.38
2022-08-17T01:14:04.308Z,99794.78
2022-08-17T01:17:07.086Z,99796.41
2022-08-17T01:20:09.629Z,99794.50
2022-08-17T01:23:11.268Z,99793.06
2022-08-17T01:26:20.776Z,99795.63
2022-08-17T01:29:24.814Z,99793.94
2022-08-17T01:32:28.293Z,99785.25
2022-08-17T01:35:29.975Z,99785.81
2022-08-17T01:38:32.119Z,99796.00
2022-08-17T01:41:34.935Z,99799.03
2022-08-17T01:44:37.231Z,99805.22
2022-08-17T01:47:41.908Z,99801.75
2022-08-17T01:50:44.872Z,99806.19
2022-08-17T01:53:52.519Z,99806.31
2022-08-17T01:56:54.326Z,99809.84
2022-08-17T01:59:56.180Z,99805.44
2022-08-17T02:02:58.005Z,99808.13
2022-08-17T02:05:59.888Z,99800.22
2022-08-17T02:09:03.808Z,99802.06
2022-08-17T02:12:37.839Z,99800.34
2022-08-17T02:15:29.904Z,99793.25
2022-08-17T02:18:31.709Z,99793.09
2022-08-17T02:21:34.139Z,99789.72
2022-08-17T02:25:00.783Z,99803.03
2022-08-17T02:28:00.112Z,99803.03
2022-08-17T02:31:08.102Z,99788.91
2022-08-17T02:34:10.354Z,99800.44
2022-08-17T02:37:12.047Z,99798.72
2022-08-17T02:40:13.868Z,99797.00
2022-08-17T02:43:15.941Z,99793.47
2022-08-17T02:46:17.791Z,99796.13
2022-08-17T02:49:22.702Z,99797.06
2022-08-17T02:53:01.362Z,99796.25
2022-08-17T02:56:07.414Z,99796.25
2022-08-17T02:59:09.355Z,99796.34
2022-08-17T03:02:12.540Z,99805.28
2022-08-17T03:05:17.359Z,99809.78
2022-08-17T03:08:20.295Z,99815.12
2022-08-17T03:11:22.409Z,99814.34
2022-08-17T03:14:26.114Z,99821.53
2022-08-17T03:17:28.209Z,99824.09
2022-08-17T03:20:36.595Z,99814.28
2022-08-17T03:23:41.218Z,99815.88
2022-08-17T03:26:43.403Z,99813.50
2022-08-17T03:29:45.449Z,99818.75
2022-08-17T03:32:49.787Z,99818.78
2022-08-17T03:35:52.271Z,99821.41
2022-08-17T03:38:54.123Z,99826.69
2022-08-17T03:42:31.397Z,99835.59
2022-08-17T03:45:53.448Z,99840.87
2022-08-17T03:49:13.838Z,99845.22
2022-08-17T03:52:34.413Z,99845.16
2022-08-17T03:55:56.385Z,99853.19
2022-08-17T03:58:58.330Z,99864.59
2022-08-17T04:02:11.376Z,99867.34
2022-08-17T04:05:15.043Z,99860.41
2022-08-17T04:08:16.835Z,99855.09
2022-08-17T04:11:18.525Z,99861.19
2022-08-17T04:14:20.733Z,99854.16
2022-08-17T04:17:26.343Z,99854.16
2022-08-17T04:20:29.296Z,99851.66
2022-08-17T04:23:33.848Z,99868.19
2022-08-17T04:26:52.810Z,99867.38
2022-08-17T04:29:56.365Z,99858.53
2022-08-17T04:33:07.272Z,99874.19
2022-08-17T04:36:09.074Z,99877.63
2022-08-17T04:39:11.157Z,99874.06
2022-08-17T04:42:17.403Z,99878.25
2022-08-17T04:45:19.238Z,99883.38
2022-08-17T04:48:21.840Z,99892.06
2022-08-17T04:51:28.094Z,99892.06
2022-08-17T04:54:30.283Z,99898.00
2022-08-17T04:57:39.435Z,99895.19
2022-08-17T05:00:41.335Z,99898.59
2022-08-17T05:03:44.124Z,99902.72
2022-08-17T05:06:46.766Z,99898.97
2022-08-17T05:09:48.431Z,99897.84
2022-08-17T05:13:05.686Z,99904.75
2022-08-17T05:16:09.129Z,99901.84
2022-08-17T05:19:10.888Z,99910.41
2022-08-17T05:22:14.643Z,99902.28
2022-08-17T05:25:25.569Z,99899.34
2022-08-17T05:28:28.500Z,99900.84
2022-08-17T05:31:31.638Z,99909.28
2022-08-17T05:34:33.425Z,99903.47
2022-08-17T05:37:35.059Z,99904.97
2022-08-17T05:40:37.347Z,99911.56
2022-08-17T05:43:41.692Z,99914.03
2022-08-17T05:46:49.039Z,99913.91
2022-08-17T05:49:51.045Z,99910.63
2022-08-17T05:53:10.591Z,99916.63
2022-08-17T05:56:22.685Z,99905.59
2022-08-17T05:59:53.913Z,99911.09
2022-08-17T06:03:22.576Z,99915.22
2022-08-17T06:06:36.862Z,99910.66
2022-08-17T06:09:52.142Z,99915.44
2022-08-17T06:13:15.934Z,99919.59
2022-08-17T06:16:31.160Z,99917.87
2022-08-17T06:19:59.837Z,99917.00
2022-08-17T06:23:10.924Z,99903.34
2022-08-17T06:26:21.203Z,99910.37
2022-08-17T06:30:00.947Z,99909.19
2022-08-17T06:33:13.198Z,99908.19
2022-08-17T06:36:23.757Z,99912.22
2022-08-17T06:39:38.197Z,99907.56
2022-08-17T06:43:06.907Z,99913.66
2022-08-17T06:46:11.806Z,99908.22
2022-08-17T06:49:34.644Z,99909.28
2022-08-17T06:52:47.426Z,99905.41
2022-08-17T06:56:03.438Z,99901.91
2022-08-17T06:59:07.944Z,99912.16
2022-08-17T07:02:15.281Z,99913.03
2022-08-17T07:05:21.352Z,99918.91
2022-08-17T07:08:35.032Z,99920.09
2022-08-17T07:11:50.520Z,99924.69
2022-08-17T07:14:56.938Z,99923.09
2022-08-17T07:17:59.690Z,99927.06
2022-08-17T07:21:17.493Z,99930.53
2022-08-17T07:24:29.474Z,99930.47
2022-08-17T07:27:37.751Z,99926.47
2022-08-17T07:30:47.349Z,99923.84
2022-08-17T07:34:08.845Z,99922.66
2022-08-17T07:37:10.967Z,99920.19
2022-08-17T07:41:07.875Z,99924.47
2022-08-17T07:44:15.252Z,99926.22
2022-08-17T07:47:37.721Z,99925.22
2022-08-17T07:50:39.659Z,99918.88
2022-08-17T07:53:41.770Z,99918.09
2022-08-17T07:56:45.822Z,99922.16
2022-08-17T07:59:59.637Z,99926.38
2022-08-17T08:03:23.751Z,99925.31
2022-08-17T08:06:27.931Z,99925.03
2022-08-17T08:09:45.943Z,99927.91
2022-08-17T08:12:53.757Z,99927.19
2022-08-17T08:16:13.671Z,99928.94
2022-08-17T08:19:20.917Z,99935.38
2022-08-17T08:22:30.513Z,99932.75
2022-08-17T08:25:56.888Z,99935.50
2022-08-17T08:29:19.925Z,99945.03
2022-08-17T08:32:34.380Z,99938.09
2022-08-17T08:35:54.293Z,99945.53
2022-08-17T08:39:04.777Z,99935.94
2022-08-17T08:42:15.762Z,99926.00
2022-08-17T08:45:53.080Z,99932.56
2022-08-17T08:49:11.844Z,99930.09
2022-08-17T08:52:21.808Z,99931.81
2022-08-17T08:55:59.055Z,99933.19
2022-08-17T08:59:09.117Z,99944.16
2022-08-17T09:02:28.918Z,99944.25
2022-08-17T09:06:01.947Z,99946.81
2022-08-17T09:09:24.857Z,99933.91
2022-08-17T09:12:32.180Z,99937.84
2022-08-17T09:15:42.662Z,99939.87
2022-08-17T09:19:02.414Z,99948.25
2022-08-17T09:22:17.813Z,99946.25
2022-08-17T09:25:28.752Z,99936.09
2022-08-17T09:28:36.435Z,99948.59
2022-08-17T09:31:49.431Z,99945.38
2022-08-17T09:34:55.195Z,99938.53
2022-08-17T09:38:11.935Z,99938.47
2022-08-17T09:41:25.259Z,99945.69
2022-08-17T09:44:31.063Z,99939.22
2022-08-17T09:47:45.502Z,99931.59
2022-08-17T09:51:06.543Z,99929.06
2022-08-17T09:54:45.336Z,99928.38
2022-08-17T09:58:05.244Z,99918.13
2022-08-17T10:01:21.306Z,99925.75
2022-08-17T10:04:35.029Z,99911.78
2022-08-17T10:08:16.739Z,99913.91
2022-08-17T10:12:07.370Z,99917.28
2022-08-17T10:15:37.812Z,99915.31
2022-08-17T10:19:05.896Z,99908.47
2022-08-17T10:22:38.106Z,99909.28
2022-08-17T10:26:05.551Z,99915.81
2022-08-17T10:29:28.862Z,99916.09
2022-08-17T10:33:02.847Z,99913.44
2022-08-17T10:36:17.919Z,99904.53
2022-08-17T10:39:36.580Z,99911.28
2022-08-17T10:43:06.965Z,99899.72
2022-08-17T10:46:52.458Z,99900.97
2022-08-17T10:49:56.117Z,99900.47
2022-08-17T10:52:57.779Z,99893.09
2022-08-17T10:56:15.591Z,99898.41
2022-08-17T10:59:35.722Z,99894.66
2022-08-17T11:02:52.272Z,99894.63
2022-08-17T11:06:06.017Z,99891.22
2022-08-17T11:09:37.265Z,99895.69
2022-08-17T11:13:13.041Z,99889.44
2022-08-17T11:16:33.588Z,99889.84
2022-08-17T11:20:07.545Z,99896.13
2022-08-17T11:23:27.374Z,99889.50
2022-08-17T11:26:32.700Z,99877.47
2022-08-17T11:29:52.629Z,99872.22
2022-08-17T11:32:58.457Z,99880.81
2022-08-17T11:36:24.589Z,99876.75
2022-08-17T11:39:44.963Z,99855.19
2022-08-17T11:42:49.891Z,99866.22
2022-08-17T11:46:04.943Z,99856.53
2022-08-17T11:49:38.457Z,99853.09
2022-08-17T11:52:44.509Z,99857.22
2022-08-17T11:55:51.808Z,99852.12
2022-08-17T11:58:53.594Z,99843.75
2022-08-17T12:01:57.281Z,99853.09
2022-08-17T12:05:17.396Z,99846.19
2022-08-17T12:08:22.016Z,99843.56
2022-08-17T12:12:10.950Z,99844.03
2022-08-17T12:15:10.009Z,99842.13
2022-08-17T12:18:20.572Z,99840.13
2022-08-17T12:21:45.141Z,99838.47
2022-08-17T12:25:02.391Z,99835.03
2022-08-17T12:28:19.829Z,99839.47
2022-08-17T12:31:27.198Z,99829.41
2022-08-17T12:34:43.876Z,99831.84
2022-08-17T12:37:49.386Z,99828.97
2022-08-17T12:40:58.091Z,99814.12
2022-08-17T12:44:04.147Z,99830.25
2022-08-17T12:47:22.422Z,99818.44
2022-08-17T12:50:28.478Z,99810.34
2022-08-17T12:53:35.239Z,99808.22
2022-08-17T12:56:37.525Z,99812.53
2022-08-17T12:59:55.131Z,99812.81
2022-08-17T13:03:03.559Z,99821.66
2022-08-17T13:06:09.734Z,99821.84
2022-08-17T13:09:15.355Z,99819.56
2022-08-17T13:12:26.678Z,99817.59
2022-08-17T13:15:32.936Z,99821.25
2022-08-17T13:18:42.508Z,99810.78
2022-08-17T13:21:48.335Z,99803.16
2022-08-17T13:25:00.875Z,99800.97
2022-08-17T13:28:02.904Z,99813.03
2022-08-17T13:31:24.334Z,99809.91
2022-08-17T13:34:27.050Z,99817.97
2022-08-17T13:37:35.113Z,99803.72
2022-08-17T13:40:38.999Z,99798.41
2022-08-17T13:43:45.117Z,99803.59
2022-08-17T13:46:52.528Z,99804.75
2022-08-17T13:49:58.930Z,99809.94
2022-08-17T13:53:01.011Z,99806.47
2022-08-17T13:56:34.951Z,99806.16
2022-08-17T13:59:53.596Z,99800.97
2022-08-17T14:03:01.941Z,99806.78
2022-08-17T14:06:08.849Z,99805.66
2022-08-17T14:09:10.681Z,99802.78
2022-08-17T14:12:19.353Z,99800.00
2022-08-17T14:15:23.543Z,99789.72
2022-08-17T14:18:56.413Z,99790.38
2022-08-17T14:22:00.575Z,99788.88
2022-08-17T14:25:02.515Z,99788.84
2022-08-17T14:28:07.689Z,99784.84
2022-08-17T14:31:10.972Z,99784.91
2022-08-17T14:34:13.175Z,99790.75
2022-08-17T14:37:14.881Z,99780.63
2022-08-17T14:40:20.987Z,99778.66
2022-08-17T14:43:22.735Z,99776.22
2022-08-17T14:46:24.835Z,99782.56
2022-08-17T14:49:26.498Z,99780.91
2022-08-17T14:52:28.707Z,99783.59
2022-08-17T14:55:31.248Z,99775.53
2022-08-17T14:58:32.972Z,99776.72
2022-08-17T15:01:35.459Z,99783.12
2022-08-17T15:04:39.848Z,99788.63
2022-08-17T15:07:45.138Z,99781.59
2022-08-17T15:10:50.000Z,99780.94
2022-08-17T15:13:52.892Z,99785.75
2022-08-17T15:16:55.049Z,99781.13
2022-08-17T15:19:57.093Z,99787.50
2022-08-17T15:22:59.313Z,99782.56
2022-08-17T15:26:01.391Z,99775.38
2022-08-17T15:29:03.397Z,99770.41
2022-08-17T15:32:05.183Z,99772.78
2022-08-17T15:35:10.346Z,99761.38
2022-08-17T15:38:13.059Z,99768.62
2022-08-17T15:41:18.336Z,99769.12
2022-08-17T15:44:20.031Z,99773.53
2022-08-17T15:47:22.553Z,99771.34
2022-08-17T15:50:24.227Z,99769.41
2022-08-17T15:53:26.042Z,99759.47
2022-08-17T15:56:28.798Z,99770.94
2022-08-17T15:59:31.181Z,99772.06
2022-08-17T16:03:44.507Z,99768.34
2022-08-17T16:05:56.553Z,99769.62
2022-08-17T16:09:00.434Z,99770.22
2022-08-17T16:12:28.234Z,99764.44
2022-08-17T16:15:32.053Z,99760.13
2022-08-17T16:18:36.463Z,99766.22
2022-08-17T16:21:43.171Z,99768.31
2022-08-17T16:24:56.843Z,99768.94
2022-08-17T16:28:00.168Z,99770.00
2022-08-17T16:31:02.061Z,99770.59
2022-08-17T16:34:17.696Z,99770.59
2022-08-17T16:37:20.337Z,99772.78
2022-08-17T16:40:26.061Z,99767.25
2022-08-17T16:43:29.432Z,99767.13
2022-08-17T16:46:31.507Z,99773.25
2022-08-17T16:49:35.773Z,99767.75
2022-08-17T16:52:40.538Z,99767.94
2022-08-17T16:55:43.188Z,99768.41
2022-08-17T16:58:46.146Z,99778.91
2022-08-17T17:01:53.035Z,99777.56
2022-08-17T17:05:25.459Z,99776.28
2022-08-17T17:08:51.075Z,99777.81
2022-08-17T17:12:01.019Z,99772.84
2022-08-17T17:15:03.051Z,99784.50
2022-08-17T17:18:07.317Z,99786.75
2022-08-17T17:21:13.958Z,99791.41
2022-08-17T17:24:57.469Z,99787.69
2022-08-17T17:28:09.775Z,99794.66
2022-08-17T17:31:25.370Z,99796.09
2022-08-17T17:34:32.517Z,99801.47
2022-08-17T17:37:35.624Z,99791.12
2022-08-17T17:40:44.994Z,99797.75
2022-08-17T17:43:52.917Z,99808.06
2022-08-17T17:46:58.350Z,99803.66
2022-08-17T17:50:02.370Z,99802.81
2022-08-17T17:53:22.591Z,99809.00
2022-08-17T17:57:17.767Z,99815.03
2022-08-17T18:00:25.892Z,99819.28
2022-08-17T18:04:01.507Z,99824.25
2022-08-17T18:07:05.233Z,99833.63
2022-08-17T18:10:32.966Z,99829.81
2022-08-17T18:13:52.181Z,99826.84
2022-08-17T18:16:56.670Z,99835.38
2022-08-17T18:19:58.634Z,99833.44
2022-08-17T18:23:00.292Z,99837.62
2022-08-17T18:26:02.137Z,99845.97
2022-08-17T18:29:25.497Z,99842.34
2022-08-17T18:32:39.031Z,99846.03
2022-08-17T18:35:58.662Z,99849.81
2022-08-17T18:39:16.639Z,99847.34
2022-08-17T18:42:25.987Z,99850.78
2022-08-17T18:45:41.063Z,99853.69
2022-08-17T18:48:59.247Z,99859.81
2022-08-17T18:52:21.375Z,99852.22
2022-08-17T18:55:31.395Z,99861.97
2022-08-17T18:58:33.293Z,99856.25
2022-08-17T19:01:54.665Z,99862.66
2022-08-17T19:05:03.753Z,99856.69
2022-08-17T19:08:17.725Z,99862.81
2022-08-17T19:11:38.727Z,99866.16
2022-08-17T19:14:41.568Z,99871.44
2022-08-17T19:17:51.854Z,99864.97
2022-08-17T19:21:14.866Z,99874.59
2022-08-17T19:24:26.500Z,99871.75
2022-08-17T19:27:52.270Z,99871.25
2022-08-17T19:31:03.553Z,99877.00
2022-08-17T19:34:05.729Z,99874.62
2022-08-17T19:37:26.436Z,99873.63
2022-08-17T19:40:52.216Z,99868.44
2022-08-17T19:43:59.821Z,99871.19
2022-08-17T19:47:57.854Z,99872.19
2022-08-17T19:51:16.050Z,99873.41
2022-08-17T19:54:55.989Z,99868.69
2022-08-17T19:58:17.893Z,99880.31
2022-08-17T20:01:34.969Z,99884.06
2022-08-17T20:04:42.450Z,99881.41
2022-08-17T20:08:02.565Z,99885.69
2022-08-17T20:11:10.916Z,99886.28
2022-08-17T20:14:22.730Z,99885.59
2022-08-17T20:17:30.877Z,99880.91
2022-08-17T20:20:42.993Z,99881.94
2022-08-17T20:24:36.379Z,99889.75
2022-08-17T20:28:05.544Z,99891.16
2022-08-17T20:31:42.538Z,99890.38
2022-08-17T20:34:46.679Z,99891.03
2022-08-17T20:38:02.476Z,99896.56
2022-08-17T20:41:04.074Z,99891.19
2022-08-17T20:44:09.185Z,99892.03
2022-08-17T20:47:32.007Z,99892.13
2022-08-17T20:50:39.533Z,99891.25
2022-08-17T20:53:46.993Z,99897.00
2022-08-17T20:56:52.030Z,99889.59
2022-08-17T20:59:55.298Z,99885.81
2022-08-17T21:03:49.147Z,99876.72
2022-08-17T21:07:43.666Z,99884.47
2022-08-17T21:10:57.744Z,99910.31
2022-08-17T21:14:29.380Z,99912.81
2022-08-17T21:17:40.121Z,99906.75
2022-08-17T21:21:01.785Z,99910.31
2022-08-17T21:24:26.323Z,99913.31
2022-08-17T21:27:58.891Z,99912.53
2022-08-17T21:31:09.203Z,99916.19
2022-08-17T21:34:17.077Z,99906.88
2022-08-17T21:37:19.039Z,99904.97
2022-08-17T21:40:29.550Z,99912.38
2022-08-17T21:43:36.744Z,99903.91
2022-08-17T21:46:42.969Z,99917.69
2022-08-17T21:49:48.726Z,99911.41
2022-08-17T21:52:54.510Z,99913.59
2022-08-17T21:55:56.691Z,99916.13
2022-08-17T21:59:03.672Z,99912.53
2022-08-17T22:02:09.408Z,99913.72
2022-08-17T22:05:14.572Z,99920.31
2022-08-17T22:08:22.225Z,99916.72
2022-08-17T22:11:24.227Z,99919.50
2022-08-17T22:14:51.437Z,99921.00
2022-08-17T22:17:56.035Z,99920.94
2022-08-17T22:21:02.589Z,99916.72
2022-08-17T22:24:15.994Z,99927.19
2022-08-17T22:27:19.331Z,99935.38
2022-08-17T22:30:56.578Z,99927.50
2022-08-17T22:33:59.833Z,99923.09
2022-08-17T22:37:27.827Z,99930.22
2022-08-17T22:40:33.654Z,99933.28
2022-08-17T22:43:38.488Z,99928.78
2022-08-17T22:46:53.498Z,99921.94
2022-08-17T22:49:59.026Z,99930.81
2022-08-17T22:53:22.306Z,99932.09
2022-08-17T22:56:44.539Z,99929.34
2022-08-17T22:59:47.798Z,99936.72
2022-08-17T23:03:07.030Z,99946.19
2022-08-17T23:06:11.275Z,99954.38
2022-08-17T23:09:13.186Z,99956.75
2022-08-17T23:12:21.745Z,99958.66
2022-08-17T23:15:26.451Z,99968.00
2022-08-17T23:18:28.543Z,99967.91
2022-08-17T23:21:31.423Z,99975.69
2022-08-17T23:24:50.878Z,99980.75
2022-08-17T23:27:52.954Z,99984.06
2022-08-17T23:30:54.838Z,99997.28
2022-08-17T23:33:58.974Z,99996.47
2022-08-17T23:37:02.308Z,99999.94
2022-08-17T23:40:08.669Z,99996.44
2022-08-17T23:43:24.197Z,99998.16
2022-08-17T23:46:34.938Z,100006.25
2022-08-17T23:49:37.582Z,100000.34
2022-08-17T23:52:41.293Z,99997.31
2022-08-17T23:55:43.198Z,100002.41
2022-08-17T23:58:45.002Z,100001.62
